createdAt,value
2019-05-13T00:01:07.056Z,63.65
2019-05-13T00:03:36.076Z,63.94
2019-05-13T00:06:07.382Z,64.21
2019-05-13T00:08:38.675Z,64.52
2019-05-13T00:11:10.016Z,64.74
2019-05-13T00:13:41.374Z,65.21
2019-05-13T00:16:14.082Z,65.40
2019-05-13T00:18:45.564Z,65.54
2019-05-13T00:21:16.776Z,65.67
2019-05-13T00:23:48.069Z,65.81
2019-05-13T00:26:19.369Z,66.04
2019-05-13T00:28:50.618Z,66.17
2019-05-13T00:31:24.077Z,66.38
2019-05-13T00:33:54.855Z,66.68
2019-05-13T00:36:26.149Z,66.88
2019-05-13T00:38:57.422Z,67.33
2019-05-13T00:41:28.682Z,67.58
2019-05-13T00:43:59.969Z,67.69
2019-05-13T00:46:33.835Z,67.98
2019-05-13T00:49:04.753Z,68.29
2019-05-13T00:51:36.174Z,68.49
2019-05-13T00:54:07.473Z,68.39
2019-05-13T00:56:38.744Z,68.47
2019-05-13T00:59:10.050Z,68.48
2019-05-13T01:01:41.319Z,68.70
2019-05-13T01:04:14.286Z,68.96
2019-05-13T01:06:45.765Z,69.11
2019-05-13T01:09:17.083Z,69.27
2019-05-13T01:11:48.333Z,69.45
2019-05-13T01:14:19.595Z,69.46
2019-05-13T01:16:50.874Z,69.51
2019-05-13T01:19:23.735Z,69.48
2019-05-13T01:21:55.119Z,69.43
2019-05-13T01:24:26.380Z,69.54
2019-05-13T01:26:57.653Z,69.67
2019-05-13T01:29:28.944Z,69.86
2019-05-13T01:32:00.209Z,69.81
2019-05-13T01:34:33.786Z,69.88
2019-05-13T01:37:04.567Z,70.15
2019-05-13T01:39:35.829Z,70.29
2019-05-13T01:42:07.166Z,70.21
2019-05-13T01:44:38.414Z,70.39
2019-05-13T01:47:09.775Z,70.52
2019-05-13T01:49:41.094Z,70.63
2019-05-13T01:52:13.664Z,70.67
2019-05-13T01:54:44.991Z,70.58
2019-05-13T01:57:16.291Z,70.86
2019-05-13T01:59:47.743Z,71.00
2019-05-13T02:02:19.058Z,70.96
2019-05-13T02:04:50.329Z,71.13
2019-05-13T02:07:21.641Z,70.91
2019-05-13T02:09:53.475Z,71.20
2019-05-13T02:12:24.781Z,71.49
2019-05-13T02:14:56.090Z,71.83
2019-05-13T02:17:27.371Z,71.94
2019-05-13T02:19:58.703Z,71.94
2019-05-13T02:22:29.948Z,72.11
2019-05-13T02:25:01.234Z,72.22
2019-05-13T02:27:34.491Z,71.93
2019-05-13T02:30:06.340Z,71.88
2019-05-13T02:32:37.751Z,72.07
2019-05-13T02:35:09.061Z,72.32
2019-05-13T02:37:43.376Z,72.63
2019-05-13T02:40:13.882Z,72.89
2019-05-13T02:42:45.213Z,72.96
2019-05-13T02:45:16.711Z,73.32
2019-05-13T02:47:47.975Z,73.66
2019-05-13T02:50:22.355Z,73.98
2019-05-13T02:52:53.109Z,74.23
2019-05-13T02:55:24.518Z,74.60
2019-05-13T02:57:55.794Z,74.83
2019-05-13T03:00:27.121Z,75.02
2019-05-13T03:02:58.420Z,74.94
2019-05-13T03:05:32.030Z,74.43
2019-05-13T03:08:03.441Z,74.75
2019-05-13T03:10:35.041Z,74.95
2019-05-13T03:13:06.334Z,75.12
2019-05-13T03:15:53.425Z,75.17
2019-05-13T03:18:24.716Z,75.34
2019-05-13T03:20:56.017Z,75.53
2019-05-13T03:23:27.279Z,75.49
2019-05-13T03:25:58.584Z,75.52
2019-05-13T03:28:33.178Z,75.66
2019-05-13T03:31:06.358Z,75.77
2019-05-13T03:33:37.775Z,75.78
2019-05-13T03:36:14.134Z,75.89
2019-05-13T03:38:59.916Z,76.05
2019-05-13T03:41:17.668Z,76.16
2019-05-13T03:43:53.295Z,76.30
2019-05-13T03:46:25.343Z,76.40
2019-05-13T03:48:57.507Z,76.29
2019-05-13T03:51:28.738Z,76.43
2019-05-13T03:54:03.171Z,76.61
2019-05-13T03:56:33.189Z,76.61
2019-05-13T03:59:04.581Z,76.64
2019-05-13T04:01:35.944Z,76.79
2019-05-13T04:04:07.234Z,76.84
2019-05-13T04:06:38.503Z,77.00
2019-05-13T04:09:22.414Z,76.98
2019-05-13T04:11:43.070Z,77.01
2019-05-13T04:14:14.326Z,77.07
2019-05-13T04:16:45.685Z,77.07
2019-05-13T04:19:16.985Z,76.95
2019-05-13T04:21:48.405Z,77.02
2019-05-13T04:24:22.624Z,77.02
2019-05-13T04:26:53.459Z,76.98
2019-05-13T04:29:24.881Z,76.98
2019-05-13T04:31:56.150Z,77.09
2019-05-13T04:34:27.428Z,77.14
2019-05-13T04:36:58.666Z,77.13
2019-05-13T04:39:44.649Z,77.07
2019-05-13T04:42:02.917Z,76.88
2019-05-13T04:44:34.233Z,76.87
2019-05-13T04:47:06.005Z,76.78
2019-05-13T04:49:37.563Z,76.70
2019-05-13T04:52:08.884Z,76.54
2019-05-13T04:54:43.339Z,76.43
2019-05-13T04:57:13.129Z,76.17
2019-05-13T04:59:44.737Z,76.05
2019-05-13T05:02:55.201Z,75.94
2019-05-13T05:05:53.073Z,75.73
2019-05-13T05:08:54.353Z,75.53
2019-05-13T05:12:22.854Z,75.06
2019-05-13T05:15:52.231Z,74.93
2019-05-13T05:19:23.797Z,74.65
2019-05-13T05:22:22.039Z,74.47
2019-05-13T05:25:29.349Z,74.16
2019-05-13T05:28:37.584Z,73.46
2019-05-13T05:31:33.862Z,73.33
2019-05-13T05:34:47.595Z,73.56
2019-05-13T05:38:43.393Z,72.99
2019-05-13T05:41:21.373Z,72.56
2019-05-13T05:43:56.087Z,71.90
2019-05-13T05:46:32.212Z,71.77
2019-05-13T05:49:07.733Z,71.84
2019-05-13T05:51:43.970Z,72.02
2019-05-13T05:54:21.889Z,71.54
2019-05-13T05:56:55.567Z,71.29
2019-05-13T05:59:32.040Z,70.25
2019-05-13T06:02:03.545Z,69.28
2019-05-13T06:04:34.820Z,69.24
2019-05-13T06:07:06.393Z,68.34
2019-05-13T06:09:37.688Z,68.54
2019-05-13T06:12:08.974Z,67.96
2019-05-13T06:14:42.323Z,68.02
2019-05-13T06:17:13.709Z,67.09
2019-05-13T06:19:44.997Z,66.64
2019-05-13T06:22:16.356Z,66.33
2019-05-13T06:24:47.744Z,66.08
2019-05-13T06:27:21.190Z,66.13
2019-05-13T06:29:52.899Z,66.10
2019-05-13T06:32:26.433Z,66.06
2019-05-13T06:34:57.385Z,65.53
2019-05-13T06:37:28.672Z,64.74
2019-05-13T06:40:02.056Z,64.60
2019-05-13T06:42:33.441Z,64.61
2019-05-13T06:45:04.920Z,63.58
2019-05-13T06:47:36.398Z,62.53
2019-05-13T06:50:08.112Z,62.65
2019-05-13T06:52:39.397Z,62.24
2019-05-13T06:55:11.631Z,61.81
2019-05-13T06:57:43.038Z,61.64
2019-05-13T07:00:14.708Z,61.93
2019-05-13T07:02:46.031Z,61.48
2019-05-13T07:05:17.292Z,61.79
2019-05-13T07:07:48.670Z,61.34
2019-05-13T07:10:22.800Z,61.19
2019-05-13T07:12:54.094Z,60.99
2019-05-13T07:15:25.394Z,59.57
2019-05-13T07:17:56.649Z,59.91
2019-05-13T07:20:28.182Z,58.74
2019-05-13T07:23:01.606Z,58.41
2019-05-13T07:25:32.843Z,58.18
2019-05-13T07:28:04.519Z,55.69
2019-05-13T07:30:42.632Z,55.17
2019-05-13T07:33:14.033Z,56.03
2019-05-13T07:35:46.398Z,56.10
2019-05-13T07:38:18.730Z,55.94
2019-05-13T07:40:56.726Z,54.83
2019-05-13T07:43:27.994Z,53.91
2019-05-13T07:46:01.899Z,51.96
2019-05-13T07:48:32.397Z,52.62
2019-05-13T07:51:04.769Z,51.82
2019-05-13T07:53:36.280Z,51.63
2019-05-13T07:56:07.649Z,50.35
2019-05-13T07:58:41.630Z,50.20
2019-05-13T08:01:12.443Z,48.74
2019-05-13T08:03:43.795Z,48.96
2019-05-13T08:06:15.063Z,47.97
2019-05-13T08:08:46.401Z,47.13
2019-05-13T08:11:17.677Z,46.26
2019-05-13T08:13:51.559Z,45.67
2019-05-13T08:16:22.439Z,43.50
2019-05-13T08:18:53.812Z,43.91
2019-05-13T08:21:25.087Z,44.43
2019-05-13T08:23:56.353Z,42.07
2019-05-13T08:26:27.645Z,42.11
2019-05-13T08:29:03.210Z,41.75
2019-05-13T08:31:32.338Z,40.75
2019-05-13T08:34:03.742Z,40.49
2019-05-13T08:36:35.119Z,39.35
2019-05-13T08:39:09.245Z,36.85
2019-05-13T08:41:42.336Z,38.88
2019-05-13T08:44:13.823Z,39.73
2019-05-13T08:46:45.113Z,38.21
2019-05-13T08:50:04.482Z,38.43
2019-05-13T08:52:35.777Z,36.86
2019-05-13T08:55:08.270Z,36.12
2019-05-13T09:01:39.548Z,35.71
2019-05-13T09:04:19.099Z,35.60
2019-05-13T09:06:52.368Z,33.64
2019-05-13T09:09:23.662Z,33.94
2019-05-13T09:11:57.440Z,33.72
2019-05-13T09:14:28.747Z,33.07
2019-05-13T09:17:01.821Z,31.52
2019-05-13T09:19:33.139Z,30.91
2019-05-13T09:22:04.501Z,32.13
2019-05-13T09:24:37.822Z,31.71
2019-05-13T09:27:08.828Z,30.29
2019-05-13T09:29:42.320Z,30.10
2019-05-13T09:32:13.144Z,29.33
2019-05-13T09:34:44.443Z,28.14
2019-05-13T09:37:15.686Z,28.42
2019-05-13T09:39:47.079Z,29.06
2019-05-13T09:42:18.404Z,28.91
2019-05-13T09:44:52.289Z,26.98
2019-05-13T09:47:22.906Z,28.20
2019-05-13T09:49:54.641Z,29.69
2019-05-13T09:52:26.036Z,27.35
2019-05-13T09:54:57.328Z,25.70
2019-05-13T09:57:28.661Z,25.09
2019-05-13T10:00:01.671Z,25.29
2019-05-13T10:02:33.527Z,27.73
2019-05-13T10:05:04.889Z,26.45
2019-05-13T10:07:36.232Z,27.15
2019-05-13T10:10:08.530Z,24.99
2019-05-13T10:12:42.131Z,25.20
2019-05-13T10:15:13.049Z,25.33
2019-05-13T10:17:44.359Z,24.09
2019-05-13T10:20:18.712Z,24.60
2019-05-13T10:22:52.050Z,24.78
2019-05-13T10:25:23.139Z,24.84
2019-05-13T10:27:54.569Z,24.39
2019-05-13T10:30:25.889Z,23.87
2019-05-13T10:32:59.654Z,22.99
2019-05-13T10:35:31.696Z,22.22
2019-05-13T10:38:04.605Z,21.78
2019-05-13T10:40:36.084Z,22.61
2019-05-13T10:43:26.245Z,21.61
2019-05-13T10:45:41.632Z,21.93
2019-05-13T10:48:13.613Z,21.70
2019-05-13T10:50:45.483Z,21.38
2019-05-13T10:53:16.776Z,22.44
2019-05-13T10:55:48.173Z,21.78
2019-05-13T10:58:23.032Z,22.07
2019-05-13T11:00:54.952Z,20.32
2019-05-13T11:03:26.516Z,20.39
2019-05-13T11:06:04.343Z,21.65
2019-05-13T11:08:35.664Z,21.53
2019-05-13T11:11:06.979Z,21.12
2019-05-13T11:13:52.380Z,20.84
2019-05-13T11:16:12.246Z,21.15
2019-05-13T11:18:43.707Z,22.00
2019-05-13T11:21:15.048Z,22.26
2019-05-13T11:23:46.410Z,21.58
2019-05-13T11:26:17.758Z,20.67
2019-05-13T11:28:51.901Z,21.56
2019-05-13T11:31:22.665Z,20.32
2019-05-13T11:33:54.411Z,20.43
2019-05-13T11:36:27.128Z,20.29
2019-05-13T11:38:58.601Z,19.97
2019-05-13T11:41:32.442Z,20.74
2019-05-13T11:44:12.877Z,20.16
2019-05-13T11:46:36.091Z,20.21
2019-05-13T11:49:07.456Z,20.00
2019-05-13T11:51:38.981Z,19.09
2019-05-13T11:54:16.549Z,18.18
2019-05-13T11:57:01.131Z,18.10
2019-05-13T11:59:24.088Z,19.57
2019-05-13T12:01:55.365Z,19.17
2019-05-13T12:04:26.841Z,19.65
2019-05-13T12:07:35.231Z,19.31
2019-05-13T12:10:12.470Z,19.84
2019-05-13T12:12:44.179Z,20.22
2019-05-13T12:15:27.170Z,19.88
2019-05-13T12:17:52.337Z,19.25
2019-05-13T12:20:22.733Z,19.11
2019-05-13T12:22:54.075Z,19.36
2019-05-13T12:25:25.474Z,18.58
2019-05-13T12:27:56.808Z,18.18
2019-05-13T12:30:28.712Z,18.13
2019-05-13T12:33:02.576Z,18.07
2019-05-13T12:35:33.115Z,18.57
2019-05-13T12:38:04.455Z,17.92
2019-05-13T12:40:35.733Z,17.59
2019-05-13T12:43:07.145Z,17.87
2019-05-13T12:45:38.503Z,17.36
2019-05-13T12:48:13.678Z,17.73
2019-05-13T12:50:43.393Z,17.24
2019-05-13T12:53:14.779Z,16.70
2019-05-13T12:55:52.327Z,16.09
2019-05-13T12:58:19.138Z,16.93
2019-05-13T13:00:53.266Z,17.05
2019-05-13T13:03:24.160Z,17.01
2019-05-13T13:06:21.169Z,17.98
2019-05-13T13:08:41.986Z,16.01
2019-05-13T13:11:01.788Z,16.84
2019-05-13T13:13:57.441Z,16.48
2019-05-13T13:16:06.162Z,16.31
2019-05-13T13:18:37.539Z,16.78
2019-05-13T13:21:08.921Z,15.94
2019-05-13T13:23:42.756Z,16.43
2019-05-13T13:26:16.205Z,17.20
2019-05-13T13:28:47.494Z,16.82
2019-05-13T13:31:18.836Z,17.62
2019-05-13T13:33:54.116Z,17.35
2019-05-13T13:36:24.283Z,16.83
2019-05-13T13:38:56.468Z,17.37
2019-05-13T13:41:27.878Z,17.27
2019-05-13T13:44:04.703Z,16.74
2019-05-13T13:46:38.294Z,17.09
2019-05-13T13:49:05.913Z,16.34
2019-05-13T13:51:37.417Z,16.38
2019-05-13T13:54:08.795Z,16.83
2019-05-13T13:56:43.818Z,16.96
2019-05-13T13:59:14.131Z,17.40
2019-05-13T14:01:45.677Z,17.09
2019-05-13T14:04:16.990Z,17.04
2019-05-13T14:09:22.646Z,17.03
2019-05-13T14:11:54.018Z,16.70
2019-05-13T14:14:25.348Z,16.35
2019-05-13T14:16:56.752Z,17.84
2019-05-13T14:19:28.110Z,18.16
2019-05-13T14:22:01.122Z,18.28
2019-05-13T14:24:33.196Z,17.42
2019-05-13T14:27:04.543Z,17.65
2019-05-13T14:29:40.560Z,17.19
2019-05-13T14:32:08.836Z,16.85
2019-05-13T14:34:42.050Z,17.91
2019-05-13T14:37:13.254Z,17.70
2019-05-13T14:39:44.837Z,17.55
2019-05-13T14:42:16.232Z,16.73
2019-05-13T14:44:47.601Z,17.18
2019-05-13T14:47:18.988Z,16.90
2019-05-13T14:49:52.086Z,16.82
2019-05-13T14:52:23.414Z,16.11
2019-05-13T14:54:54.813Z,16.40
2019-05-13T14:57:26.111Z,16.64
2019-05-13T14:59:57.464Z,16.67
2019-05-13T15:02:28.790Z,17.30
2019-05-13T15:05:02.622Z,16.79
2019-05-13T15:07:33.797Z,16.72
2019-05-13T15:10:07.605Z,16.86
2019-05-13T15:12:41.357Z,17.34
2019-05-13T15:15:12.882Z,17.59
2019-05-13T15:17:44.179Z,17.81
2019-05-13T15:20:15.762Z,16.94
2019-05-13T15:22:47.100Z,17.25
2019-05-13T15:25:18.378Z,17.60
2019-05-13T15:27:52.531Z,17.32
2019-05-13T15:30:22.723Z,16.75
2019-05-13T15:32:54.104Z,16.85
2019-05-13T15:35:25.408Z,17.38
2019-05-13T15:37:56.689Z,17.48
2019-05-13T15:40:28.104Z,17.01
2019-05-13T15:42:59.455Z,17.18
2019-05-13T15:45:31.858Z,17.58
2019-05-13T15:48:03.427Z,17.68
2019-05-13T15:50:34.711Z,17.44
2019-05-13T15:53:06.339Z,17.64
2019-05-13T15:55:37.602Z,17.96
2019-05-13T15:58:11.580Z,18.11
2019-05-13T16:00:42.082Z,17.44
2019-05-13T16:03:13.437Z,17.91
2019-05-13T16:05:44.926Z,17.53
2019-05-13T16:08:16.279Z,17.67
2019-05-13T16:10:47.609Z,18.11
2019-05-13T16:13:18.977Z,18.07
2019-05-13T16:15:50.367Z,19.09
2019-05-13T16:18:22.294Z,18.85
2019-05-13T16:20:53.659Z,18.49
2019-05-13T16:23:24.973Z,19.39
2019-05-13T16:25:56.396Z,19.33
2019-05-13T16:28:27.651Z,19.04
2019-05-13T16:30:59.109Z,19.62
2019-05-13T16:33:31.393Z,19.34
2019-05-13T16:36:03.004Z,19.78
2019-05-13T16:38:34.300Z,20.19
2019-05-13T16:41:05.588Z,19.94
2019-05-13T16:43:37.100Z,19.95
2019-05-13T16:46:08.445Z,20.06
2019-05-13T16:48:41.682Z,20.60
2019-05-13T16:51:12.919Z,21.23
2019-05-13T16:53:44.250Z,21.37
2019-05-13T16:56:26.247Z,21.63
2019-05-13T16:58:48.581Z,21.52
2019-05-13T17:01:21.982Z,22.11
2019-05-13T17:03:52.920Z,21.75
2019-05-13T17:06:24.225Z,21.20
2019-05-13T17:08:55.561Z,21.59
2019-05-13T17:11:26.882Z,22.43
2019-05-13T17:13:58.187Z,23.03
2019-05-13T17:16:31.642Z,22.93
2019-05-13T17:19:02.562Z,22.99
2019-05-13T17:21:36.069Z,23.42
2019-05-13T17:24:06.993Z,23.29
2019-05-13T17:26:38.332Z,24.02
2019-05-13T17:29:11.796Z,24.13
2019-05-13T17:31:42.606Z,23.81
2019-05-13T17:34:13.937Z,24.14
2019-05-13T17:36:45.253Z,24.55
2019-05-13T17:39:21.311Z,24.32
2019-05-13T17:41:52.764Z,25.00
2019-05-13T17:44:25.637Z,24.49
2019-05-13T17:47:01.641Z,24.50
2019-05-13T17:49:35.744Z,25.40
2019-05-13T17:52:07.090Z,24.90
2019-05-13T17:54:38.403Z,24.97
2019-05-13T17:57:12.207Z,25.49
2019-05-13T17:59:59.716Z,25.60
2019-05-13T18:02:31.457Z,25.76
2019-05-13T18:05:08.272Z,25.18
2019-05-13T18:07:42.022Z,25.59
2019-05-13T18:10:14.614Z,25.99
2019-05-13T18:12:46.282Z,26.46
2019-05-13T18:15:22.190Z,26.23
2019-05-13T18:17:53.646Z,26.53
2019-05-13T18:20:24.955Z,26.55
2019-05-13T18:22:56.572Z,27.54
2019-05-13T18:25:27.947Z,27.40
2019-05-13T18:28:01.589Z,27.82
2019-05-13T18:30:32.622Z,27.79
2019-05-13T18:33:03.982Z,28.47
2019-05-13T18:35:35.503Z,28.72
2019-05-13T18:38:06.800Z,28.59
2019-05-13T18:40:38.112Z,28.90
2019-05-13T18:43:09.477Z,29.07
2019-05-13T18:45:41.915Z,29.50
2019-05-13T18:48:13.447Z,29.53
2019-05-13T18:50:44.762Z,29.96
2019-05-13T18:53:16.132Z,30.17
2019-05-13T18:55:47.439Z,30.53
2019-05-13T18:58:18.739Z,30.57
2019-05-13T19:00:52.057Z,30.93
2019-05-13T19:03:23.014Z,31.46
2019-05-13T19:05:54.339Z,31.60
2019-05-13T19:08:25.707Z,31.95
2019-05-13T19:10:57.018Z,32.22
2019-05-13T19:13:28.341Z,32.30
2019-05-13T19:16:02.133Z,32.72
2019-05-13T19:18:33.047Z,32.77
2019-05-13T19:21:04.349Z,33.35
2019-05-13T19:23:35.722Z,33.45
2019-05-13T19:26:07.042Z,33.43
2019-05-13T19:28:38.464Z,34.07
2019-05-13T19:31:11.563Z,33.91
2019-05-13T19:33:42.880Z,33.95
2019-05-13T19:36:14.176Z,34.30
2019-05-13T19:38:47.553Z,34.73
2019-05-13T19:41:19.165Z,35.04
2019-05-13T19:43:51.004Z,35.16
2019-05-13T19:46:25.622Z,35.54
2019-05-13T19:48:55.628Z,35.53
2019-05-13T19:51:28.376Z,35.50
2019-05-13T19:54:01.283Z,35.59
2019-05-13T19:56:32.740Z,36.04
2019-05-13T19:59:04.135Z,36.18
2019-05-13T20:01:35.779Z,36.18
2019-05-13T20:04:07.087Z,36.49
2019-05-13T20:06:38.439Z,36.48
2019-05-13T20:09:09.822Z,36.59
2019-05-13T20:11:41.947Z,36.65
2019-05-13T20:14:13.383Z,36.99
2019-05-13T20:16:44.854Z,37.83
2019-05-13T20:19:16.438Z,37.60
2019-05-13T20:21:47.764Z,37.48
2019-05-13T20:24:19.029Z,37.59
2019-05-13T20:26:52.168Z,37.82
2019-05-13T20:29:23.303Z,38.13
2019-05-13T20:31:54.559Z,38.32
2019-05-13T20:34:25.822Z,38.66
2019-05-13T20:36:57.139Z,38.67
2019-05-13T20:39:28.420Z,38.75
2019-05-13T20:42:01.575Z,39.06
2019-05-13T20:44:32.814Z,39.33
2019-05-13T20:47:04.097Z,39.52
2019-05-13T20:49:35.420Z,39.88
2019-05-13T20:52:06.756Z,40.16
2019-05-13T20:54:38.078Z,40.09
2019-05-13T20:57:09.384Z,40.26
2019-05-13T20:59:41.391Z,40.44
2019-05-13T21:02:12.835Z,40.77
2019-05-13T21:04:44.140Z,41.08
2019-05-13T21:07:15.397Z,41.34
2019-05-13T21:09:46.691Z,41.12
2019-05-13T21:12:17.973Z,41.26
2019-05-13T21:14:51.111Z,41.50
2019-05-13T21:17:22.251Z,41.97
2019-05-13T21:19:59.858Z,42.04
2019-05-13T21:22:26.523Z,42.83
2019-05-13T21:24:57.788Z,42.57
2019-05-13T21:27:29.086Z,42.85
2019-05-13T21:30:02.106Z,43.18
2019-05-13T21:32:33.437Z,43.38
2019-05-13T21:35:04.848Z,43.32
2019-05-13T21:37:36.123Z,43.54
2019-05-13T21:40:07.565Z,43.88
2019-05-13T21:42:38.847Z,43.93
2019-05-13T21:45:11.151Z,44.49
2019-05-13T21:47:42.639Z,44.99
2019-05-13T21:50:14.167Z,44.87
2019-05-13T21:52:45.488Z,44.94
2019-05-13T21:55:16.769Z,45.29
2019-05-13T21:57:48.052Z,45.46
2019-05-13T22:00:23.786Z,45.54
2019-05-13T22:02:55.086Z,45.58
2019-05-13T22:05:26.365Z,45.76
2019-05-13T22:07:57.797Z,46.32
2019-05-13T22:10:30.962Z,46.34
2019-05-13T22:13:02.071Z,46.57
2019-05-13T22:15:33.374Z,46.74
2019-05-13T22:18:04.896Z,46.99
2019-05-13T22:20:47.430Z,47.34
2019-05-13T22:23:09.206Z,47.59
2019-05-13T22:25:43.415Z,48.08
2019-05-13T22:28:13.478Z,48.15
2019-05-13T22:30:44.780Z,48.53
2019-05-13T22:33:16.089Z,49.08
2019-05-13T22:35:47.371Z,49.31
2019-05-13T22:38:21.398Z,49.48
2019-05-13T22:40:52.449Z,49.83
2019-05-13T22:43:23.751Z,50.24
2019-05-13T22:45:55.033Z,50.40
2019-05-13T22:48:26.331Z,50.33
2019-05-13T22:50:57.606Z,50.62
2019-05-13T22:53:28.896Z,50.80
2019-05-13T22:56:00.170Z,50.64
2019-05-13T22:58:32.112Z,51.00
2019-05-13T23:01:03.485Z,51.53
2019-05-13T23:03:34.738Z,51.42
2019-05-13T23:06:05.949Z,51.70
2019-05-13T23:08:37.160Z,52.06
2019-05-13T23:11:08.399Z,52.23
2019-05-13T23:13:41.970Z,52.72
2019-05-13T23:16:12.540Z,52.92
2019-05-13T23:18:43.743Z,52.98
2019-05-13T23:21:14.975Z,53.58
2019-05-13T23:23:46.213Z,53.21
2019-05-13T23:26:17.798Z,53.35
2019-05-13T23:28:49.077Z,53.71
2019-05-13T23:31:20.376Z,53.70
2019-05-13T23:33:51.695Z,53.58
2019-05-13T23:36:22.982Z,53.90
2019-05-13T23:38:54.268Z,54.39
2019-05-13T23:41:25.571Z,54.58
2019-05-13T23:43:56.916Z,54.85
2019-05-13T23:46:28.584Z,54.86
2019-05-13T23:49:01.279Z,55.31
2019-05-13T23:51:32.697Z,55.29
2019-05-13T23:54:03.989Z,55.84
2019-05-13T23:56:35.399Z,56.34
2019-05-13T23:59:06.697Z,56.63
